createdAt,value
2019-04-30T00:02:29.298Z,-0.12
2019-04-30T00:06:34.366Z,-0.12
2019-04-30T00:10:36.905Z,-0.14
2019-04-30T00:14:38.631Z,-0.17
2019-04-30T00:18:55.168Z,-0.19
2019-04-30T00:22:47.223Z,-0.13
2019-04-30T00:26:52.256Z,-0.14
2019-04-30T00:30:50.815Z,-0.12
2019-04-30T00:34:52.710Z,-0.11
2019-04-30T00:38:54.890Z,-0.14
2019-04-30T00:43:00.151Z,-0.15
2019-04-30T00:47:04.939Z,-0.10
2019-04-30T00:51:07.532Z,-0.05
2019-04-30T00:55:09.257Z,0.04
2019-04-30T00:59:11.714Z,0.08
2019-04-30T01:03:20.368Z,0.17
2019-04-30T01:07:22.445Z,0.34
2019-04-30T01:11:25.407Z,0.46
2019-04-30T01:15:29.165Z,0.50
2019-04-30T01:19:32.828Z,0.55
2019-04-30T01:23:34.854Z,0.45
2019-04-30T01:27:39.439Z,0.39
2019-04-30T01:31:40.932Z,0.36
2019-04-30T01:35:43.029Z,0.40
2019-04-30T01:39:44.975Z,0.44
2019-04-30T01:43:48.618Z,0.40
2019-04-30T01:47:50.451Z,0.41
2019-04-30T01:51:52.835Z,0.43
2019-04-30T01:56:09.120Z,0.47
2019-04-30T02:00:21.836Z,0.51
2019-04-30T02:04:23.818Z,0.59
2019-04-30T02:08:25.684Z,0.72
2019-04-30T02:12:29.554Z,0.80
2019-04-30T02:16:31.196Z,0.89
2019-04-30T02:20:34.070Z,0.91
2019-04-30T02:24:36.212Z,1.06
2019-04-30T02:28:40.136Z,1.18
2019-04-30T02:32:42.198Z,1.29
2019-04-30T02:36:50.861Z,1.35
2019-04-30T02:40:53.812Z,1.40
2019-04-30T02:44:56.063Z,1.50
2019-04-30T02:48:59.995Z,1.51
2019-04-30T02:53:05.193Z,1.59
2019-04-30T02:57:16.366Z,1.67
2019-04-30T03:01:20.246Z,1.73
2019-04-30T03:05:21.914Z,1.76
2019-04-30T03:09:23.772Z,1.82
2019-04-30T03:13:25.602Z,1.90
2019-04-30T03:17:44.696Z,1.95
2019-04-30T03:21:51.009Z,1.98
2019-04-30T03:25:52.919Z,2.13
2019-04-30T03:29:54.762Z,2.26
2019-04-30T03:34:01.531Z,2.23
2019-04-30T03:38:00.339Z,2.25
2019-04-30T03:42:02.404Z,2.35
2019-04-30T03:46:04.330Z,2.48
2019-04-30T03:50:06.430Z,2.62
2019-04-30T03:54:10.114Z,2.64
2019-04-30T03:58:12.298Z,2.69
2019-04-30T04:02:40.462Z,2.78
2019-04-30T04:06:46.117Z,2.92
2019-04-30T04:11:00.758Z,3.14
2019-04-30T04:15:03.954Z,3.27
2019-04-30T04:19:06.149Z,3.43
2019-04-30T04:23:09.635Z,3.57
2019-04-30T04:27:12.786Z,3.74
2019-04-30T04:31:14.891Z,4.00
2019-04-30T04:35:19.500Z,4.28
2019-04-30T04:39:21.074Z,4.54
2019-04-30T04:43:22.992Z,4.78
2019-04-30T04:47:25.000Z,4.94
2019-04-30T04:51:37.664Z,5.11
2019-04-30T04:55:30.853Z,5.27
2019-04-30T04:59:34.453Z,5.42
2019-04-30T05:03:39.932Z,5.60
2019-04-30T05:07:41.999Z,5.78
2019-04-30T05:11:43.853Z,5.86
2019-04-30T05:15:45.690Z,5.79
2019-04-30T05:19:48.714Z,5.90
2019-04-30T05:23:50.759Z,6.06
2019-04-30T05:27:52.659Z,6.20
2019-04-30T05:31:54.494Z,6.33
2019-04-30T05:35:56.343Z,6.39
2019-04-30T05:39:58.495Z,6.52
2019-04-30T05:44:01.780Z,6.43
2019-04-30T05:48:03.656Z,6.40
2019-04-30T05:52:05.571Z,6.39
2019-04-30T05:56:09.457Z,6.28
2019-04-30T06:00:11.979Z,6.42
2019-04-30T06:04:14.063Z,6.69
2019-04-30T06:08:19.233Z,6.90
2019-04-30T06:12:49.466Z,7.15
2019-04-30T06:17:10.314Z,7.09
2019-04-30T06:21:12.359Z,7.07
2019-04-30T06:25:14.449Z,7.18
2019-04-30T06:29:18.967Z,7.58
2019-04-30T06:33:22.139Z,7.84
2019-04-30T06:37:24.898Z,8.21
2019-04-30T06:41:26.776Z,8.23
2019-04-30T06:45:30.210Z,8.38
2019-04-30T06:49:33.015Z,8.58
2019-04-30T06:53:34.860Z,8.82
2019-04-30T06:57:38.415Z,9.07
2019-04-30T07:01:40.453Z,8.88
2019-04-30T07:05:42.333Z,9.04
2019-04-30T07:09:59.236Z,9.03
2019-04-30T07:14:00.275Z,9.00
2019-04-30T07:18:02.097Z,9.32
2019-04-30T07:22:04.072Z,9.25
2019-04-30T07:26:06.251Z,9.36
2019-04-30T07:30:09.954Z,9.52
2019-04-30T07:34:11.881Z,9.93
2019-04-30T07:38:13.763Z,10.10
2019-04-30T07:42:15.610Z,10.46
2019-04-30T07:46:20.019Z,10.65
2019-04-30T07:50:22.671Z,12.06
2019-04-30T07:54:25.040Z,12.32
2019-04-30T07:58:29.470Z,11.84
2019-04-30T08:02:38.035Z,12.07
2019-04-30T08:06:36.264Z,12.20
2019-04-30T08:10:39.434Z,11.99
2019-04-30T08:14:41.646Z,11.91
2019-04-30T08:18:43.603Z,12.51
2019-04-30T08:22:45.994Z,12.58
2019-04-30T08:26:49.404Z,12.64
2019-04-30T08:30:51.364Z,12.02
2019-04-30T08:34:53.490Z,12.39
2019-04-30T08:38:55.546Z,12.15
2019-04-30T08:42:59.339Z,12.25
2019-04-30T08:47:01.029Z,12.10
2019-04-30T08:51:02.998Z,12.03
2019-04-30T08:55:15.516Z,12.24
2019-04-30T08:59:11.106Z,12.23
2019-04-30T09:03:12.139Z,11.94
2019-04-30T09:07:14.064Z,12.05
2019-04-30T09:11:25.237Z,12.36
2019-04-30T09:15:19.682Z,12.53
2019-04-30T09:19:23.086Z,12.59
2019-04-30T09:23:24.992Z,12.64
2019-04-30T09:27:26.860Z,12.97
2019-04-30T09:31:29.655Z,13.15
2019-04-30T09:35:32.266Z,13.19
2019-04-30T09:39:34.279Z,13.61
2019-04-30T09:43:36.294Z,13.55
2019-04-30T09:47:41.914Z,14.04
2019-04-30T09:51:42.310Z,13.92
2019-04-30T09:55:44.590Z,13.98
2019-04-30T09:59:48.484Z,14.33
2019-04-30T10:03:50.648Z,14.04
2019-04-30T10:07:52.938Z,14.31
2019-04-30T10:12:13.692Z,14.39
2019-04-30T10:16:29.624Z,14.65
2019-04-30T10:20:45.838Z,14.50
2019-04-30T10:24:50.041Z,14.38
2019-04-30T10:28:53.363Z,14.28
2019-04-30T10:32:55.620Z,14.45
2019-04-30T10:36:59.596Z,14.62
2019-04-30T10:41:02.689Z,14.53
2019-04-30T10:45:09.313Z,14.17
2019-04-30T10:49:11.015Z,14.49
2019-04-30T10:53:13.014Z,14.28
2019-04-30T10:57:18.617Z,14.18
2019-04-30T11:01:20.596Z,14.05
2019-04-30T11:05:22.503Z,14.03
2019-04-30T11:09:25.836Z,13.98
2019-04-30T11:13:27.748Z,13.81
2019-04-30T11:17:33.121Z,13.80
2019-04-30T11:21:35.861Z,13.45
2019-04-30T11:25:50.459Z,13.28
2019-04-30T11:30:00.637Z,13.32
2019-04-30T11:33:58.741Z,13.21
2019-04-30T11:38:00.578Z,13.38
2019-04-30T11:42:02.569Z,13.19
2019-04-30T11:46:22.660Z,13.80
2019-04-30T11:50:24.515Z,13.88
2019-04-30T11:54:26.405Z,13.46
2019-04-30T11:58:30.411Z,13.89
2019-04-30T12:02:42.217Z,14.33
2019-04-30T12:06:44.048Z,14.46
2019-04-30T12:11:08.203Z,14.66
2019-04-30T12:15:10.241Z,14.67
2019-04-30T12:19:13.539Z,14.76
2019-04-30T12:23:15.439Z,14.89
2019-04-30T12:27:18.708Z,14.64
2019-04-30T12:31:24.400Z,14.88
2019-04-30T12:35:31.905Z,15.15
2019-04-30T12:39:32.949Z,15.26
2019-04-30T12:43:35.645Z,15.31
2019-04-30T12:47:44.749Z,15.24
2019-04-30T12:52:13.083Z,15.24
2019-04-30T12:56:41.502Z,15.28
2019-04-30T13:00:43.348Z,15.04
2019-04-30T13:04:46.664Z,15.22
2019-04-30T13:08:52.791Z,15.12
2019-04-30T13:12:58.392Z,15.46
2019-04-30T13:17:00.715Z,15.32
2019-04-30T13:21:03.144Z,15.14
2019-04-30T13:25:09.338Z,14.97
2019-04-30T13:29:17.460Z,14.76
2019-04-30T13:33:45.156Z,14.43
2019-04-30T13:37:54.065Z,14.36
2019-04-30T13:42:17.320Z,14.52
2019-04-30T13:46:11.087Z,14.94
2019-04-30T13:50:13.269Z,15.01
2019-04-30T13:54:15.142Z,14.75
2019-04-30T13:58:17.073Z,14.54
2019-04-30T14:02:18.957Z,14.66
2019-04-30T14:06:23.524Z,14.59
2019-04-30T14:10:25.621Z,14.45
2019-04-30T14:14:29.230Z,14.48
2019-04-30T14:18:34.041Z,14.04
2019-04-30T14:22:34.979Z,14.24
2019-04-30T14:26:39.012Z,14.26
2019-04-30T14:30:40.940Z,13.85
2019-04-30T14:34:42.982Z,13.60
2019-04-30T14:38:46.079Z,13.32
2019-04-30T14:43:20.325Z,13.31
2019-04-30T14:47:33.353Z,13.20
2019-04-30T14:51:36.173Z,13.47
2019-04-30T14:56:08.497Z,15.00
2019-04-30T15:00:25.715Z,15.35
2019-04-30T15:04:29.084Z,15.93
2019-04-30T15:08:31.081Z,18.08
2019-04-30T15:12:32.946Z,17.14
2019-04-30T15:16:35.511Z,14.86
2019-04-30T15:20:39.600Z,13.90
2019-04-30T15:24:41.544Z,14.13
2019-04-30T15:28:43.496Z,13.75
2019-04-30T15:32:47.134Z,13.90
2019-04-30T15:36:49.414Z,15.10
2019-04-30T15:40:51.283Z,17.26
2019-04-30T15:44:53.332Z,18.07
2019-04-30T15:48:55.225Z,17.07
2019-04-30T15:52:58.556Z,14.95
2019-04-30T15:57:00.725Z,13.77
2019-04-30T16:01:03.850Z,13.00
2019-04-30T16:05:28.628Z,12.94
2019-04-30T16:09:38.452Z,13.04
2019-04-30T16:14:18.816Z,13.00
2019-04-30T16:18:21.273Z,12.84
2019-04-30T16:22:23.768Z,12.45
2019-04-30T16:26:26.014Z,12.32
2019-04-30T16:30:28.944Z,12.02
2019-04-30T16:34:30.995Z,11.74
2019-04-30T16:38:33.078Z,11.44
2019-04-30T16:42:34.899Z,11.30
2019-04-30T16:46:36.836Z,11.22
2019-04-30T16:50:38.751Z,11.16
2019-04-30T16:54:41.639Z,11.08
2019-04-30T16:59:07.617Z,10.94
2019-04-30T17:03:19.126Z,10.78
2019-04-30T17:07:35.387Z,10.59
2019-04-30T17:16:11.576Z,10.18
2019-04-30T17:20:14.284Z,9.99
2019-04-30T17:24:16.507Z,9.74
2019-04-30T17:28:18.865Z,9.57
2019-04-30T17:32:20.912Z,9.38
2019-04-30T17:36:23.101Z,9.20
2019-04-30T17:40:25.450Z,8.94
2019-04-30T17:44:28.963Z,8.64
2019-04-30T17:48:31.103Z,8.33
2019-04-30T17:52:33.095Z,8.14
2019-04-30T17:56:35.349Z,7.94
2019-04-30T18:00:39.457Z,7.90
2019-04-30T18:04:42.160Z,7.85
2019-04-30T18:08:44.149Z,7.80
2019-04-30T18:12:46.485Z,7.58
2019-04-30T18:16:49.055Z,7.48
2019-04-30T18:21:19.038Z,7.31
2019-04-30T18:25:40.952Z,7.12
2019-04-30T18:29:43.587Z,7.08
2019-04-30T18:33:45.438Z,6.88
2019-04-30T18:37:48.558Z,6.70
2019-04-30T18:41:51.544Z,6.56
2019-04-30T18:45:53.824Z,6.39
2019-04-30T18:49:59.351Z,6.23
2019-04-30T18:54:01.285Z,5.95
2019-04-30T18:58:03.377Z,5.78
2019-04-30T19:02:08.131Z,5.65
2019-04-30T19:06:23.132Z,5.53
2019-04-30T19:10:27.672Z,5.32
2019-04-30T19:15:00.342Z,5.07
2019-04-30T19:19:12.682Z,4.87
2019-04-30T19:23:13.947Z,4.70
2019-04-30T19:27:15.820Z,4.55
2019-04-30T19:31:19.724Z,4.49
2019-04-30T19:35:21.399Z,4.33
2019-04-30T19:39:23.825Z,4.22
2019-04-30T19:43:25.809Z,4.16
2019-04-30T19:47:30.708Z,4.02
2019-04-30T19:51:31.749Z,3.92
2019-04-30T19:55:33.712Z,3.78
2019-04-30T19:59:35.545Z,3.66
2019-04-30T20:03:37.446Z,3.50
2019-04-30T20:07:40.699Z,3.50
2019-04-30T20:11:44.240Z,3.43
2019-04-30T20:15:46.094Z,3.41
2019-04-30T20:19:48.952Z,3.39
2019-04-30T20:23:50.848Z,3.34
2019-04-30T20:27:52.703Z,3.16
2019-04-30T20:31:54.546Z,3.08
2019-04-30T20:35:56.402Z,2.98
2019-04-30T20:40:08.709Z,2.87
2019-04-30T20:44:12.329Z,2.83
2019-04-30T20:48:14.176Z,2.83
2019-04-30T20:52:16.056Z,2.69
2019-04-30T20:56:19.113Z,2.70
2019-04-30T21:00:22.205Z,2.57
2019-04-30T21:04:24.546Z,2.55
2019-04-30T21:08:26.971Z,2.46
2019-04-30T21:12:29.359Z,2.48
2019-04-30T21:16:32.572Z,2.40
2019-04-30T21:20:34.920Z,2.32
2019-04-30T21:24:37.838Z,2.24
2019-04-30T21:28:40.492Z,2.18
2019-04-30T21:33:00.736Z,2.07
2019-04-30T21:37:02.585Z,2.03
2019-04-30T21:41:05.489Z,1.98
2019-04-30T21:45:09.355Z,1.88
2019-04-30T21:49:11.287Z,1.84
2019-04-30T21:53:13.680Z,1.77
2019-04-30T21:57:17.078Z,1.78
2019-04-30T22:01:26.226Z,1.78
2019-04-30T22:05:29.818Z,1.61
2019-04-30T22:09:31.692Z,1.47
2019-04-30T22:13:34.047Z,1.33
2019-04-30T22:17:35.906Z,1.18
2019-04-30T22:21:39.550Z,1.01
2019-04-30T22:25:42.263Z,0.86
2019-04-30T22:29:44.702Z,0.84
2019-04-30T22:33:46.546Z,0.91
2019-04-30T22:37:50.622Z,1.02
2019-04-30T22:42:00.833Z,1.14
2019-04-30T22:46:09.766Z,1.12
2019-04-30T22:50:14.191Z,0.98
2019-04-30T22:54:16.558Z,0.82
2019-04-30T22:58:18.721Z,0.70
2019-04-30T23:02:30.503Z,0.63
2019-04-30T23:06:33.008Z,0.49
2019-04-30T23:10:35.054Z,0.50
2019-04-30T23:14:37.035Z,0.43
2019-04-30T23:18:38.968Z,0.32
2019-04-30T23:22:40.797Z,0.25
2019-04-30T23:26:42.807Z,0.17
2019-04-30T23:30:44.796Z,0.05
2019-04-30T23:34:46.721Z,0.04
2019-04-30T23:38:48.576Z,0.02
2019-04-30T23:42:50.647Z,-0.09
2019-04-30T23:46:53.011Z,-0.25
2019-04-30T23:50:54.882Z,-0.34
2019-04-30T23:54:56.737Z,-0.36
2019-04-30T23:58:58.741Z,-0.39
